KVDI/VDI METAR and TAF weather

Enter ICAO airport designator
Station Type Date Time Source
KVDI METAR 2019/02/16 07:15 UTC NOAA

KVDI 160715Z AUTO 21008KT 10SM OVC042 17/09 A2983 RMK AO2


Station Type Date Time Source
KVDI Decoded METAR 2019/02/16 07:15 UTC NOAA

Vidalia, Vidalia Municipal Airport, GA, United States (KVDI) 32-11-33N 082-22-19W
Feb 16, 2019 - 02:15 AM EST / 2019.02.16 0715 UTC
Wind: from the SSW (210 degrees) at 9 MPH (8 KT):0
Visibility: 10 mile(s):0
Sky conditions: overcast
Temperature: 62 F (17 C)
Dew Point: 48 F (9 C)
Relative Humidity: 59%
Pressure (altimeter): 29.83 in. Hg (1010 hPa)
ob: KVDI 160715Z AUTO 21008KT 10SM OVC042 17/09 A2983 RMK AO2
cycle: 7

Station Type Date Time Source
KVDI TAF UTC NOAA

Error!


Example: see airport list